sensor_id;sensor_type;location;lat;lon;timestamp;temperature;humidity
10304;DHT22;5197;48.152;8.590;2022-12-07T00:01:19;1.70;52.80
10304;DHT22;5197;48.152;8.590;2022-12-07T00:03:47;1.70;52.80
10304;DHT22;5197;48.152;8.590;2022-12-07T00:06:16;1.70;52.50
10304;DHT22;5197;48.152;8.590;2022-12-07T00:08:44;1.70;52.10
10304;DHT22;5197;48.152;8.590;2022-12-07T00:11:17;1.70;51.70
10304;DHT22;5197;48.152;8.590;2022-12-07T00:13:45;1.80;51.10
10304;DHT22;5197;48.152;8.590;2022-12-07T00:16:17;1.80;51.10
10304;DHT22;5197;48.152;8.590;2022-12-07T00:18:45;1.80;50.70
10304;DHT22;5197;48.152;8.590;2022-12-07T00:21:17;1.80;50.50
10304;DHT22;5197;48.152;8.590;2022-12-07T00:23:46;1.80;50.60
10304;DHT22;5197;48.152;8.590;2022-12-07T00:26:25;1.80;51.00
10304;DHT22;5197;48.152;8.590;2022-12-07T00:28:57;1.80;51.10
10304;DHT22;5197;48.152;8.590;2022-12-07T00:31:27;1.70;51.00
10304;DHT22;5197;48.152;8.590;2022-12-07T00:33:54;1.70;50.90
10304;DHT22;5197;48.152;8.590;2022-12-07T00:36:23;1.70;51.40
10304;DHT22;5197;48.152;8.590;2022-12-07T00:38:54;1.70;51.30
10304;DHT22;5197;48.152;8.590;2022-12-07T00:41:23;1.80;50.70
10304;DHT22;5197;48.152;8.590;2022-12-07T00:43:51;1.80;50.20
10304;DHT22;5197;48.152;8.590;2022-12-07T00:46:19;1.80;50.90
10304;DHT22;5197;48.152;8.590;2022-12-07T00:48:47;1.80;49.80
10304;DHT22;5197;48.152;8.590;2022-12-07T00:51:15;1.80;49.50
10304;DHT22;5197;48.152;8.590;2022-12-07T00:53:43;1.80;49.60
10304;DHT22;5197;48.152;8.590;2022-12-07T00:56:13;1.80;49.50
10304;DHT22;5197;48.152;8.590;2022-12-07T00:58:40;1.80;49.50
10304;DHT22;5197;48.152;8.590;2022-12-07T01:01:09;1.80;49.30
10304;DHT22;5197;48.152;8.590;2022-12-07T01:03:37;1.80;49.30
10304;DHT22;5197;48.152;8.590;2022-12-07T01:06:04;1.80;48.90
10304;DHT22;5197;48.152;8.590;2022-12-07T01:08:32;1.80;48.60
10304;DHT22;5197;48.152;8.590;2022-12-07T01:11:03;1.90;48.10
10304;DHT22;5197;48.152;8.590;2022-12-07T01:13:31;1.90;47.90
10304;DHT22;5197;48.152;8.590;2022-12-07T01:16:00;1.90;47.40
10304;DHT22;5197;48.152;8.590;2022-12-07T01:18:28;1.90;47.30
10304;DHT22;5197;48.152;8.590;2022-12-07T01:23:30;1.90;47.70
10304;DHT22;5197;48.152;8.590;2022-12-07T01:26:06;1.80;47.70
10304;DHT22;5197;48.152;8.590;2022-12-07T01:28:33;1.80;47.80
10304;DHT22;5197;48.152;8.590;2022-12-07T01:31:06;1.90;47.70
10304;DHT22;5197;48.152;8.590;2022-12-07T01:33:36;1.90;47.80
10304;DHT22;5197;48.152;8.590;2022-12-07T01:38:33;1.80;48.00
10304;DHT22;5197;48.152;8.590;2022-12-07T01:41:01;1.80;48.20
10304;DHT22;5197;48.152;8.590;2022-12-07T01:43:30;1.80;48.80
10304;DHT22;5197;48.152;8.590;2022-12-07T01:46:01;1.80;48.70
10304;DHT22;5197;48.152;8.590;2022-12-07T01:48:35;1.80;48.60
10304;DHT22;5197;48.152;8.590;2022-12-07T01:51:09;1.80;48.60
10304;DHT22;5197;48.152;8.590;2022-12-07T01:53:41;1.80;48.20
10304;DHT22;5197;48.152;8.590;2022-12-07T01:56:12;1.90;47.80
10304;DHT22;5197;48.152;8.590;2022-12-07T01:58:44;1.90;47.30
10304;DHT22;5197;48.152;8.590;2022-12-07T02:01:11;1.90;46.80
10304;DHT22;5197;48.152;8.590;2022-12-07T02:03:40;2.00;46.80
10304;DHT22;5197;48.152;8.590;2022-12-07T02:06:11;2.00;46.50
10304;DHT22;5197;48.152;8.590;2022-12-07T02:08:39;2.00;46.30
10304;DHT22;5197;48.152;8.590;2022-12-07T02:11:07;2.00;46.10
10304;DHT22;5197;48.152;8.590;2022-12-07T02:13:36;2.00;46.20
10304;DHT22;5197;48.152;8.590;2022-12-07T02:35:09;2.00;46.80
10304;DHT22;5197;48.152;8.590;2022-12-07T02:37:48;1.90;46.50
10304;DHT22;5197;48.152;8.590;2022-12-07T02:40:19;1.90;46.30
10304;DHT22;5197;48.152;8.590;2022-12-07T02:42:50;1.90;46.40
10304;DHT22;5197;48.152;8.590;2022-12-07T02:45:21;1.90;46.60
10304;DHT22;5197;48.152;8.590;2022-12-07T02:47:51;1.90;47.10
10304;DHT22;5197;48.152;8.590;2022-12-07T02:50:20;1.90;47.40
10304;DHT22;5197;48.152;8.590;2022-12-07T02:52:47;1.90;47.50
10304;DHT22;5197;48.152;8.590;2022-12-07T02:55:17;1.90;47.60
10304;DHT22;5197;48.152;8.590;2022-12-07T02:58:14;-0.10;46.90
10304;DHT22;5197;48.152;8.590;2022-12-07T03:03:51;1.80;52.90
10304;DHT22;5197;48.152;8.590;2022-12-07T03:06:31;1.70;56.00
10304;DHT22;5197;48.152;8.590;2022-12-07T03:09:20;1.60;58.10
10304;DHT22;5197;48.152;8.590;2022-12-07T03:12:00;1.60;59.30
10304;DHT22;5197;48.152;8.590;2022-12-07T03:14:31;1.60;59.60
10304;DHT22;5197;48.152;8.590;2022-12-07T03:17:14;1.60;59.80
10304;DHT22;5197;48.152;8.590;2022-12-07T03:19:44;1.60;59.60
10304;DHT22;5197;48.152;8.590;2022-12-07T03:22:14;1.60;58.90
10304;DHT22;5197;48.152;8.590;2022-12-07T03:30:06;1.60;58.50
10304;DHT22;5197;48.152;8.590;2022-12-07T03:37:34;1.60;58.20
10304;DHT22;5197;48.152;8.590;2022-12-07T03:40:10;1.60;57.70
10304;DHT22;5197;48.152;8.590;2022-12-07T03:42:38;1.60;58.00
10304;DHT22;5197;48.152;8.590;2022-12-07T03:45:06;1.50;58.20
10304;DHT22;5197;48.152;8.590;2022-12-07T03:47:47;1.50;58.60
10304;DHT22;5197;48.152;8.590;2022-12-07T03:52:58;1.50;58.50
10304;DHT22;5197;48.152;8.590;2022-12-07T03:55:36;1.60;58.80
10304;DHT22;5197;48.152;8.590;2022-12-07T03:58:08;1.60;58.40
10304;DHT22;5197;48.152;8.590;2022-12-07T04:00:37;1.60;57.90
10304;DHT22;5197;48.152;8.590;2022-12-07T04:03:04;1.60;57.60
10304;DHT22;5197;48.152;8.590;2022-12-07T04:05:31;1.60;57.30
10304;DHT22;5197;48.152;8.590;2022-12-07T04:07:58;1.60;57.00
10304;DHT22;5197;48.152;8.590;2022-12-07T04:10:25;1.60;57.30
10304;DHT22;5197;48.152;8.590;2022-12-07T04:12:52;1.50;57.40
10304;DHT22;5197;48.152;8.590;2022-12-07T04:15:19;1.50;57.40
10304;DHT22;5197;48.152;8.590;2022-12-07T04:17:46;1.50;57.50
10304;DHT22;5197;48.152;8.590;2022-12-07T04:20:13;1.50;57.30
10304;DHT22;5197;48.152;8.590;2022-12-07T04:22:40;1.50;57.30
10304;DHT22;5197;48.152;8.590;2022-12-07T04:25:07;1.60;56.90
10304;DHT22;5197;48.152;8.590;2022-12-07T04:27:34;1.60;56.20
10304;DHT22;5197;48.152;8.590;2022-12-07T04:30:01;1.60;55.70
10304;DHT22;5197;48.152;8.590;2022-12-07T04:32:29;1.60;54.90
10304;DHT22;5197;48.152;8.590;2022-12-07T04:34:56;1.60;54.10
10304;DHT22;5197;48.152;8.590;2022-12-07T04:37:23;1.70;54.20
10304;DHT22;5197;48.152;8.590;2022-12-07T04:39:50;1.70;53.30
10304;DHT22;5197;48.152;8.590;2022-12-07T04:42:17;1.70;52.60
10304;DHT22;5197;48.152;8.590;2022-12-07T04:44:44;1.60;52.10
10304;DHT22;5197;48.152;8.590;2022-12-07T04:47:12;1.70;51.70
10304;DHT22;5197;48.152;8.590;2022-12-07T04:49:39;1.70;51.50
10304;DHT22;5197;48.152;8.590;2022-12-07T04:52:06;1.70;51.10
10304;DHT22;5197;48.152;8.590;2022-12-07T04:54:33;1.60;51.00
10304;DHT22;5197;48.152;8.590;2022-12-07T04:57:00;1.60;50.20
10304;DHT22;5197;48.152;8.590;2022-12-07T04:59:26;1.60;50.00
10304;DHT22;5197;48.152;8.590;2022-12-07T05:01:53;1.50;49.60
10304;DHT22;5197;48.152;8.590;2022-12-07T05:04:20;1.50;49.80
10304;DHT22;5197;48.152;8.590;2022-12-07T05:06:47;1.50;49.80
10304;DHT22;5197;48.152;8.590;2022-12-07T05:09:14;1.50;49.80
10304;DHT22;5197;48.152;8.590;2022-12-07T05:11:41;1.50;49.90
10304;DHT22;5197;48.152;8.590;2022-12-07T05:16:41;1.50;49.80
10304;DHT22;5197;48.152;8.590;2022-12-07T05:19:08;1.40;50.30
10304;DHT22;5197;48.152;8.590;2022-12-07T05:21:36;1.40;50.40
10304;DHT22;5197;48.152;8.590;2022-12-07T05:24:04;1.40;50.50
10304;DHT22;5197;48.152;8.590;2022-12-07T05:26:32;1.40;50.00
10304;DHT22;5197;48.152;8.590;2022-12-07T05:28:59;1.40;49.40
10304;DHT22;5197;48.152;8.590;2022-12-07T05:31:26;1.40;49.20
10304;DHT22;5197;48.152;8.590;2022-12-07T05:33:54;1.40;49.20
10304;DHT22;5197;48.152;8.590;2022-12-07T05:36:21;1.40;49.10
10304;DHT22;5197;48.152;8.590;2022-12-07T05:38:48;1.40;49.40
10304;DHT22;5197;48.152;8.590;2022-12-07T05:41:17;1.40;49.30
10304;DHT22;5197;48.152;8.590;2022-12-07T05:44:04;1.50;49.30
10304;DHT22;5197;48.152;8.590;2022-12-07T05:46:31;1.50;48.80
10304;DHT22;5197;48.152;8.590;2022-12-07T05:48:59;1.50;48.40
10304;DHT22;5197;48.152;8.590;2022-12-07T05:51:26;1.50;47.70
10304;DHT22;5197;48.152;8.590;2022-12-07T05:53:53;1.50;47.10
10304;DHT22;5197;48.152;8.590;2022-12-07T05:56:20;1.50;46.70
10304;DHT22;5197;48.152;8.590;2022-12-07T05:58:48;1.60;46.80
10304;DHT22;5197;48.152;8.590;2022-12-07T06:01:33;1.60;46.20
10304;DHT22;5197;48.152;8.590;2022-12-07T06:04:00;1.60;46.00
10304;DHT22;5197;48.152;8.590;2022-12-07T06:06:27;1.60;45.50
10304;DHT22;5197;48.152;8.590;2022-12-07T06:08:54;1.60;45.20
10304;DHT22;5197;48.152;8.590;2022-12-07T06:11:21;1.60;44.30
10304;DHT22;5197;48.152;8.590;2022-12-07T06:14:07;1.50;44.10
10304;DHT22;5197;48.152;8.590;2022-12-07T06:16:34;1.50;44.70
10304;DHT22;5197;48.152;8.590;2022-12-07T06:19:01;1.50;45.00
10304;DHT22;5197;48.152;8.590;2022-12-07T06:21:28;1.50;44.80
10304;DHT22;5197;48.152;8.590;2022-12-07T06:23:55;1.50;44.60
10304;DHT22;5197;48.152;8.590;2022-12-07T06:26:22;1.50;44.70
10304;DHT22;5197;48.152;8.590;2022-12-07T06:28:49;1.50;44.70
10304;DHT22;5197;48.152;8.590;2022-12-07T06:31:16;1.50;44.30
10304;DHT22;5197;48.152;8.590;2022-12-07T06:33:43;1.50;43.90
10304;DHT22;5197;48.152;8.590;2022-12-07T06:36:10;1.50;43.60
10304;DHT22;5197;48.152;8.590;2022-12-07T06:38:38;1.50;43.30
10304;DHT22;5197;48.152;8.590;2022-12-07T06:41:05;1.50;42.70
10304;DHT22;5197;48.152;8.590;2022-12-07T06:43:33;1.40;42.40
10304;DHT22;5197;48.152;8.590;2022-12-07T06:46:00;1.40;42.60
10304;DHT22;5197;48.152;8.590;2022-12-07T06:48:27;1.40;42.70
10304;DHT22;5197;48.152;8.590;2022-12-07T06:50:54;1.40;42.10
10304;DHT22;5197;48.152;8.590;2022-12-07T06:53:22;1.80;38.40
10304;DHT22;5197;48.152;8.590;2022-12-07T06:55:49;1.70;40.00
10304;DHT22;5197;48.152;8.590;2022-12-07T06:58:17;1.60;40.40
10304;DHT22;5197;48.152;8.590;2022-12-07T07:00:45;1.50;40.40
10304;DHT22;5197;48.152;8.590;2022-12-07T07:03:12;1.40;40.40
10304;DHT22;5197;48.152;8.590;2022-12-07T07:05:39;1.40;40.30
10304;DHT22;5197;48.152;8.590;2022-12-07T07:08:07;1.30;40.30
10304;DHT22;5197;48.152;8.590;2022-12-07T07:10:50;1.30;40.20
10304;DHT22;5197;48.152;8.590;2022-12-07T07:13:17;1.20;40.10
10304;DHT22;5197;48.152;8.590;2022-12-07T07:15:46;1.10;40.00
10304;DHT22;5197;48.152;8.590;2022-12-07T07:18:13;1.00;40.00
10304;DHT22;5197;48.152;8.590;2022-12-07T07:20:40;1.00;40.10
10304;DHT22;5197;48.152;8.590;2022-12-07T07:23:07;1.00;40.10
10304;DHT22;5197;48.152;8.590;2022-12-07T07:25:35;1.00;40.10
10304;DHT22;5197;48.152;8.590;2022-12-07T07:28:02;1.00;40.00
10304;DHT22;5197;48.152;8.590;2022-12-07T07:30:30;1.00;40.00
10304;DHT22;5197;48.152;8.590;2022-12-07T07:33:01;1.00;40.00
10304;DHT22;5197;48.152;8.590;2022-12-07T07:35:30;1.00;40.00
10304;DHT22;5197;48.152;8.590;2022-12-07T07:37:58;1.00;40.00
10304;DHT22;5197;48.152;8.590;2022-12-07T07:40:25;1.00;40.00
10304;DHT22;5197;48.152;8.590;2022-12-07T07:42:53;1.00;40.00
10304;DHT22;5197;48.152;8.590;2022-12-07T07:45:22;0.90;40.00
10304;DHT22;5197;48.152;8.590;2022-12-07T07:47:49;1.00;40.00
10304;DHT22;5197;48.152;8.590;2022-12-07T07:50:17;0.90;39.90
10304;DHT22;5197;48.152;8.590;2022-12-07T07:52:45;0.90;39.90
10304;DHT22;5197;48.152;8.590;2022-12-07T07:55:12;0.90;40.00
10304;DHT22;5197;48.152;8.590;2022-12-07T07:57:40;0.90;40.00
10304;DHT22;5197;48.152;8.590;2022-12-07T08:00:10;0.90;40.00
10304;DHT22;5197;48.152;8.590;2022-12-07T08:02:39;0.90;39.90
10304;DHT22;5197;48.152;8.590;2022-12-07T08:05:06;0.80;39.90
10304;DHT22;5197;48.152;8.590;2022-12-07T08:07:34;0.80;39.90
10304;DHT22;5197;48.152;8.590;2022-12-07T08:10:02;0.70;39.90
10304;DHT22;5197;48.152;8.590;2022-12-07T08:12:30;0.60;42.70
10304;DHT22;5197;48.152;8.590;2022-12-07T08:14:57;0.60;44.00
10304;DHT22;5197;48.152;8.590;2022-12-07T08:17:24;0.50;44.50
10304;DHT22;5197;48.152;8.590;2022-12-07T08:19:51;0.50;45.50
10304;DHT22;5197;48.152;8.590;2022-12-07T08:22:18;0.50;45.90
10304;DHT22;5197;48.152;8.590;2022-12-07T08:24:45;0.50;46.20
10304;DHT22;5197;48.152;8.590;2022-12-07T08:27:12;0.50;46.50
10304;DHT22;5197;48.152;8.590;2022-12-07T08:29:39;0.50;48.00
10304;DHT22;5197;48.152;8.590;2022-12-07T08:32:06;0.50;48.10
10304;DHT22;5197;48.152;8.590;2022-12-07T08:34:35;0.50;48.10
10304;DHT22;5197;48.152;8.590;2022-12-07T08:37:03;0.50;48.30
10304;DHT22;5197;48.152;8.590;2022-12-07T08:39:30;0.50;49.20
10304;DHT22;5197;48.152;8.590;2022-12-07T08:41:58;0.50;49.60
10304;DHT22;5197;48.152;8.590;2022-12-07T08:44:25;0.50;48.00
10304;DHT22;5197;48.152;8.590;2022-12-07T08:46:57;0.50;48.00
10304;DHT22;5197;48.152;8.590;2022-12-07T08:49:40;0.50;47.50
10304;DHT22;5197;48.152;8.590;2022-12-07T08:52:08;0.50;46.80
10304;DHT22;5197;48.152;8.590;2022-12-07T08:54:37;0.50;46.20
10304;DHT22;5197;48.152;8.590;2022-12-07T08:57:05;0.60;46.40
10304;DHT22;5197;48.152;8.590;2022-12-07T08:59:34;0.70;46.30
10304;DHT22;5197;48.152;8.590;2022-12-07T09:02:05;0.80;47.10
10304;DHT22;5197;48.152;8.590;2022-12-07T09:04:33;0.80;45.30
10304;DHT22;5197;48.152;8.590;2022-12-07T09:07:00;0.90;44.90
10304;DHT22;5197;48.152;8.590;2022-12-07T09:09:27;1.00;44.40
10304;DHT22;5197;48.152;8.590;2022-12-07T09:11:53;1.30;40.30
10304;DHT22;5197;48.152;8.590;2022-12-07T09:14:21;1.40;40.50
10304;DHT22;5197;48.152;8.590;2022-12-07T09:16:48;1.40;40.30
10304;DHT22;5197;48.152;8.590;2022-12-07T09:19:15;1.30;34.70
10304;DHT22;5197;48.152;8.590;2022-12-07T09:21:42;1.20;33.90
10304;DHT22;5197;48.152;8.590;2022-12-07T09:24:09;1.20;34.00
10304;DHT22;5197;48.152;8.590;2022-12-07T09:26:35;1.20;32.00
10304;DHT22;5197;48.152;8.590;2022-12-07T09:29:03;0.00;30.10
10304;DHT22;5197;48.152;8.590;2022-12-07T09:31:30;1.30;32.60
10304;DHT22;5197;48.152;8.590;2022-12-07T09:33:59;1.30;33.40
10304;DHT22;5197;48.152;8.590;2022-12-07T09:36:27;1.40;31.40
10304;DHT22;5197;48.152;8.590;2022-12-07T09:38:55;1.50;33.50
10304;DHT22;5197;48.152;8.590;2022-12-07T09:41:23;1.50;31.00
10304;DHT22;5197;48.152;8.590;2022-12-07T09:43:51;1.50;30.60
10304;DHT22;5197;48.152;8.590;2022-12-07T09:46:20;1.60;31.00
10304;DHT22;5197;48.152;8.590;2022-12-07T09:48:49;1.60;32.10
10304;DHT22;5197;48.152;8.590;2022-12-07T09:51:21;1.70;32.90
10304;DHT22;5197;48.152;8.590;2022-12-07T09:53:53;1.80;33.20
10304;DHT22;5197;48.152;8.590;2022-12-07T09:56:21;1.80;31.50
10304;DHT22;5197;48.152;8.590;2022-12-07T09:58:49;1.80;29.90
10304;DHT22;5197;48.152;8.590;2022-12-07T10:01:20;1.80;29.60
10304;DHT22;5197;48.152;8.590;2022-12-07T10:03:52;1.80;28.40
10304;DHT22;5197;48.152;8.590;2022-12-07T10:06:20;1.80;25.80
10304;DHT22;5197;48.152;8.590;2022-12-07T10:08:47;1.80;27.30
10304;DHT22;5197;48.152;8.590;2022-12-07T10:11:14;1.90;28.10
10304;DHT22;5197;48.152;8.590;2022-12-07T10:13:45;2.00;27.60
10304;DHT22;5197;48.152;8.590;2022-12-07T10:22:13;2.10;27.60
10304;DHT22;5197;48.152;8.590;2022-12-07T10:24:43;2.10;26.30
10304;DHT22;5197;48.152;8.590;2022-12-07T10:29:50;2.10;24.00
10304;DHT22;5197;48.152;8.590;2022-12-07T10:34:45;2.10;19.90
10304;DHT22;5197;48.152;8.590;2022-12-07T10:37:19;2.10;18.80
10304;DHT22;5197;48.152;8.590;2022-12-07T10:42:28;2.10;19.10
10304;DHT22;5197;48.152;8.590;2022-12-07T11:01:11;2.40;16.70
10304;DHT22;5197;48.152;8.590;2022-12-07T11:06:41;2.40;16.10
10304;DHT22;5197;48.152;8.590;2022-12-07T11:09:36;2.40;16.80
10304;DHT22;5197;48.152;8.590;2022-12-07T11:25:49;2.60;16.80
10304;DHT22;5197;48.152;8.590;2022-12-07T11:28:41;2.70;17.00
10304;DHT22;5197;48.152;8.590;2022-12-07T11:31:50;2.70;15.80
10304;DHT22;5197;48.152;8.590;2022-12-07T11:37:16;2.80;12.90
10304;DHT22;5197;48.152;8.590;2022-12-07T11:39:58;2.80;17.00
10304;DHT22;5197;48.152;8.590;2022-12-07T11:42:30;2.90;17.00
10304;DHT22;5197;48.152;8.590;2022-12-07T11:45:13;2.90;16.40
10304;DHT22;5197;48.152;8.590;2022-12-07T11:48:11;2.90;17.00
10304;DHT22;5197;48.152;8.590;2022-12-07T11:50:50;2.90;14.50
10304;DHT22;5197;48.152;8.590;2022-12-07T11:55:52;3.00;17.10
10304;DHT22;5197;48.152;8.590;2022-12-07T12:06:44;3.20;17.20
10304;DHT22;5197;48.152;8.590;2022-12-07T12:12:29;3.20;13.40
10304;DHT22;5197;48.152;8.590;2022-12-07T12:20:35;3.20;15.50
10304;DHT22;5197;48.152;8.590;2022-12-07T12:23:19;3.10;11.10
10304;DHT22;5197;48.152;8.590;2022-12-07T12:25:56;2.90;10.50
10304;DHT22;5197;48.152;8.590;2022-12-07T12:31:12;2.80;13.30
10304;DHT22;5197;48.152;8.590;2022-12-07T12:33:49;2.90;13.60
10304;DHT22;5197;48.152;8.590;2022-12-07T12:47:00;3.10;14.50
10304;DHT22;5197;48.152;8.590;2022-12-07T12:51:59;3.20;14.90
10304;DHT22;5197;48.152;8.590;2022-12-07T12:54:33;3.20;15.00
10304;DHT22;5197;48.152;8.590;2022-12-07T13:15:53;3.40;15.50
10304;DHT22;5197;48.152;8.590;2022-12-07T13:26:19;3.40;15.30
10304;DHT22;5197;48.152;8.590;2022-12-07T13:28:49;3.30;16.40
10304;DHT22;5197;48.152;8.590;2022-12-07T13:33:55;3.20;17.20
10304;DHT22;5197;48.152;8.590;2022-12-07T13:36:27;3.10;17.20
10304;DHT22;5197;48.152;8.590;2022-12-07T13:38:59;3.10;17.10
10304;DHT22;5197;48.152;8.590;2022-12-07T13:41:29;3.10;17.10
10304;DHT22;5197;48.152;8.590;2022-12-07T13:44:08;3.00;15.20
10304;DHT22;5197;48.152;8.590;2022-12-07T13:46:59;3.00;17.10
10304;DHT22;5197;48.152;8.590;2022-12-07T13:49:32;3.00;17.10
10304;DHT22;5197;48.152;8.590;2022-12-07T13:52:26;3.00;17.10
10304;DHT22;5197;48.152;8.590;2022-12-07T13:57:34;3.10;17.10
10304;DHT22;5197;48.152;8.590;2022-12-07T14:00:04;3.10;17.30
10304;DHT22;5197;48.152;8.590;2022-12-07T14:02:33;3.10;17.10
10304;DHT22;5197;48.152;8.590;2022-12-07T14:05:15;3.10;17.10
10304;DHT22;5197;48.152;8.590;2022-12-07T14:13:35;3.00;17.10
10304;DHT22;5197;48.152;8.590;2022-12-07T14:18:45;3.00;17.10
10304;DHT22;5197;48.152;8.590;2022-12-07T14:21:17;3.00;17.10
10304;DHT22;5197;48.152;8.590;2022-12-07T14:23:45;3.00;17.10
10304;DHT22;5197;48.152;8.590;2022-12-07T14:26:28;2.90;17.00
10304;DHT22;5197;48.152;8.590;2022-12-07T14:29:18;2.80;17.30
10304;DHT22;5197;48.152;8.590;2022-12-07T14:31:45;2.70;16.90
10304;DHT22;5197;48.152;8.590;2022-12-07T14:34:14;2.60;17.80
10304;DHT22;5197;48.152;8.590;2022-12-07T14:36:41;2.60;18.10
10304;DHT22;5197;48.152;8.590;2022-12-07T14:39:08;2.50;18.10
10304;DHT22;5197;48.152;8.590;2022-12-07T14:41:39;2.50;18.90
10304;DHT22;5197;48.152;8.590;2022-12-07T14:44:24;2.50;18.80
10304;DHT22;5197;48.152;8.590;2022-12-07T14:46:57;2.50;20.20
10304;DHT22;5197;48.152;8.590;2022-12-07T14:49:44;2.50;19.30
10304;DHT22;5197;48.152;8.590;2022-12-07T14:52:16;2.50;19.50
10304;DHT22;5197;48.152;8.590;2022-12-07T14:55:04;2.50;19.10
10304;DHT22;5197;48.152;8.590;2022-12-07T14:57:32;2.50;19.40
10304;DHT22;5197;48.152;8.590;2022-12-07T14:59:59;2.50;19.90
10304;DHT22;5197;48.152;8.590;2022-12-07T15:02:26;2.50;20.00
10304;DHT22;5197;48.152;8.590;2022-12-07T15:04:52;2.80;17.60
10304;DHT22;5197;48.152;8.590;2022-12-07T15:07:20;2.70;17.10
10304;DHT22;5197;48.152;8.590;2022-12-07T15:09:48;2.60;18.60
10304;DHT22;5197;48.152;8.590;2022-12-07T15:12:15;2.50;19.20
10304;DHT22;5197;48.152;8.590;2022-12-07T15:14:42;2.50;19.80
10304;DHT22;5197;48.152;8.590;2022-12-07T15:17:12;2.40;19.70
10304;DHT22;5197;48.152;8.590;2022-12-07T15:19:55;2.40;20.00
10304;DHT22;5197;48.152;8.590;2022-12-07T15:22:22;2.40;20.50
10304;DHT22;5197;48.152;8.590;2022-12-07T15:24:49;2.40;20.70
10304;DHT22;5197;48.152;8.590;2022-12-07T15:27:16;2.40;20.90
10304;DHT22;5197;48.152;8.590;2022-12-07T15:29:43;2.40;20.60
10304;DHT22;5197;48.152;8.590;2022-12-07T15:32:10;2.30;20.90
10304;DHT22;5197;48.152;8.590;2022-12-07T15:34:37;2.30;20.90
10304;DHT22;5197;48.152;8.590;2022-12-07T15:37:07;2.30;21.10
10304;DHT22;5197;48.152;8.590;2022-12-07T15:39:36;2.30;21.10
10304;DHT22;5197;48.152;8.590;2022-12-07T15:42:03;2.30;21.20
10304;DHT22;5197;48.152;8.590;2022-12-07T15:44:30;2.30;21.30
10304;DHT22;5197;48.152;8.590;2022-12-07T15:47:16;2.30;21.50
10304;DHT22;5197;48.152;8.590;2022-12-07T15:49:43;2.30;21.30
10304;DHT22;5197;48.152;8.590;2022-12-07T15:52:10;2.30;21.20
10304;DHT22;5197;48.152;8.590;2022-12-07T15:54:37;2.20;21.30
10304;DHT22;5197;48.152;8.590;2022-12-07T15:57:04;2.20;21.70
10304;DHT22;5197;48.152;8.590;2022-12-07T15:59:32;2.20;22.00
10304;DHT22;5197;48.152;8.590;2022-12-07T16:01:59;2.20;22.70
10304;DHT22;5197;48.152;8.590;2022-12-07T16:04:27;2.20;22.00
10304;DHT22;5197;48.152;8.590;2022-12-07T16:06:56;2.20;22.20
10304;DHT22;5197;48.152;8.590;2022-12-07T16:09:23;2.20;22.10
10304;DHT22;5197;48.152;8.590;2022-12-07T16:11:50;2.20;22.30
10304;DHT22;5197;48.152;8.590;2022-12-07T16:14:19;2.20;22.20
10304;DHT22;5197;48.152;8.590;2022-12-07T16:16:46;2.20;22.30
10304;DHT22;5197;48.152;8.590;2022-12-07T16:19:13;2.20;22.40
10304;DHT22;5197;48.152;8.590;2022-12-07T16:21:41;2.10;22.30
10304;DHT22;5197;48.152;8.590;2022-12-07T16:24:08;2.10;22.50
10304;DHT22;5197;48.152;8.590;2022-12-07T16:26:36;2.10;22.60
10304;DHT22;5197;48.152;8.590;2022-12-07T16:29:03;2.10;23.00
10304;DHT22;5197;48.152;8.590;2022-12-07T16:31:30;2.10;23.30
10304;DHT22;5197;48.152;8.590;2022-12-07T16:33:58;2.10;23.30
10304;DHT22;5197;48.152;8.590;2022-12-07T16:36:25;2.10;23.30
10304;DHT22;5197;48.152;8.590;2022-12-07T16:39:14;2.10;23.30
10304;DHT22;5197;48.152;8.590;2022-12-07T16:41:41;2.10;23.30
10304;DHT22;5197;48.152;8.590;2022-12-07T16:44:10;2.10;23.60
10304;DHT22;5197;48.152;8.590;2022-12-07T16:46:39;2.10;23.70
10304;DHT22;5197;48.152;8.590;2022-12-07T16:49:08;2.10;24.00
10304;DHT22;5197;48.152;8.590;2022-12-07T16:51:37;1.90;25.30
10304;DHT22;5197;48.152;8.590;2022-12-07T16:54:04;1.80;26.20
10304;DHT22;5197;48.152;8.590;2022-12-07T16:56:31;1.70;27.40
10304;DHT22;5197;48.152;8.590;2022-12-07T16:58:58;1.60;28.00
10304;DHT22;5197;48.152;8.590;2022-12-07T17:01:25;1.50;29.40
10304;DHT22;5197;48.152;8.590;2022-12-07T17:03:57;1.50;28.50
10304;DHT22;5197;48.152;8.590;2022-12-07T17:06:26;1.40;28.30
10304;DHT22;5197;48.152;8.590;2022-12-07T17:08:54;1.40;28.30
10304;DHT22;5197;48.152;8.590;2022-12-07T17:11:27;1.40;27.80
10304;DHT22;5197;48.152;8.590;2022-12-07T17:13:55;1.40;27.40
10304;DHT22;5197;48.152;8.590;2022-12-07T17:16:41;1.40;27.80
10304;DHT22;5197;48.152;8.590;2022-12-07T17:19:10;1.40;27.70
10304;DHT22;5197;48.152;8.590;2022-12-07T17:21:38;1.40;28.60
10304;DHT22;5197;48.152;8.590;2022-12-07T17:24:07;1.30;27.30
10304;DHT22;5197;48.152;8.590;2022-12-07T17:26:35;1.40;27.20
10304;DHT22;5197;48.152;8.590;2022-12-07T17:29:04;1.30;27.10
10304;DHT22;5197;48.152;8.590;2022-12-07T17:31:31;1.40;27.20
10304;DHT22;5197;48.152;8.590;2022-12-07T17:33:59;1.40;27.10
10304;DHT22;5197;48.152;8.590;2022-12-07T17:36:31;1.30;26.90
10304;DHT22;5197;48.152;8.590;2022-12-07T17:38:58;1.30;26.80
10304;DHT22;5197;48.152;8.590;2022-12-07T17:41:27;1.30;26.70
10304;DHT22;5197;48.152;8.590;2022-12-07T17:44:17;1.30;26.70
10304;DHT22;5197;48.152;8.590;2022-12-07T17:46:46;1.30;26.50
10304;DHT22;5197;48.152;8.590;2022-12-07T17:49:14;1.30;26.60
10304;DHT22;5197;48.152;8.590;2022-12-07T17:51:41;1.30;26.70
10304;DHT22;5197;48.152;8.590;2022-12-07T17:54:28;1.30;26.60
10304;DHT22;5197;48.152;8.590;2022-12-07T17:56:55;1.40;26.40
10304;DHT22;5197;48.152;8.590;2022-12-07T17:59:23;1.40;26.10
10304;DHT22;5197;48.152;8.590;2022-12-07T18:01:50;1.40;25.90
10304;DHT22;5197;48.152;8.590;2022-12-07T18:04:17;1.40;25.70
10304;DHT22;5197;48.152;8.590;2022-12-07T18:06:44;1.40;25.60
10304;DHT22;5197;48.152;8.590;2022-12-07T18:09:17;1.40;25.40
10304;DHT22;5197;48.152;8.590;2022-12-07T18:11:44;1.50;25.40
10304;DHT22;5197;48.152;8.590;2022-12-07T18:14:11;1.50;25.10
10304;DHT22;5197;48.152;8.590;2022-12-07T18:16:39;1.50;24.80
10304;DHT22;5197;48.152;8.590;2022-12-07T18:19:06;1.40;24.60
10304;DHT22;5197;48.152;8.590;2022-12-07T18:21:35;1.30;24.70
10304;DHT22;5197;48.152;8.590;2022-12-07T18:24:03;1.30;24.70
10304;DHT22;5197;48.152;8.590;2022-12-07T18:26:32;1.20;24.70
10304;DHT22;5197;48.152;8.590;2022-12-07T18:28:59;1.20;24.60
10304;DHT22;5197;48.152;8.590;2022-12-07T18:31:28;1.20;24.50
10304;DHT22;5197;48.152;8.590;2022-12-07T18:33:59;1.10;24.40
10304;DHT22;5197;48.152;8.590;2022-12-07T18:36:26;1.10;25.20
10304;DHT22;5197;48.152;8.590;2022-12-07T18:38:53;1.00;24.20
10304;DHT22;5197;48.152;8.590;2022-12-07T18:41:20;1.00;24.30
10304;DHT22;5197;48.152;8.590;2022-12-07T18:43:47;0.90;24.40
10304;DHT22;5197;48.152;8.590;2022-12-07T18:46:19;0.90;24.40
10304;DHT22;5197;48.152;8.590;2022-12-07T18:48:47;0.80;24.30
10304;DHT22;5197;48.152;8.590;2022-12-07T18:51:17;-0.20;23.80
10304;DHT22;5197;48.152;8.590;2022-12-07T18:53:46;0.80;24.20
10304;DHT22;5197;48.152;8.590;2022-12-07T18:56:18;0.70;24.20
10304;DHT22;5197;48.152;8.590;2022-12-07T18:58:50;0.70;24.10
10304;DHT22;5197;48.152;8.590;2022-12-07T19:01:37;0.60;24.30
10304;DHT22;5197;48.152;8.590;2022-12-07T19:04:04;0.60;24.60
10304;DHT22;5197;48.152;8.590;2022-12-07T19:06:34;0.50;24.50
10304;DHT22;5197;48.152;8.590;2022-12-07T19:09:02;0.50;24.50